Terminal Aerodrome Forecast
Issued by NWS Cleveland, OH

Home | Current Version | Previous Version | Text Only | Print | Product List | Glossary On
Versions: 1 2 3 4 5 6 7 8 9 10 11 12 13 14 15 16 17 18 19 20
000
FTUS41 KCLE 301729
TAFCAK
TAF
KCAK 301729Z 3018/3118 VRB03KT P6SM BKN250
     FM310900 24005KT P6SM VCSH BKN050 OVC100
     FM311200 21003KT P6SM OVC050
      TEMPO 3113/3117 4SM -SHRA OVC035
     FM311700 28004KT P6SM OVC035
      TEMPO 3117/3118 5SM -SHRA=

USA.gov is the U.S. government's official web portal to all federal, state and local government web resources and services.